N129DC MMCU-KAGS
Flight info
| Callsign | N129DC |
|---|---|
| Flight time | N/A |
| Altitude | 37000 |
| Route | MANUN OCCOV SMELL |
| Aircraft | LJ45/M-A/S |
Departure
| Time | 2026-04-26 12:34 |
|---|---|
| Airport | General Roberto Fierro Villalobos International Airport (MMCU) |
Arrival
| Time | N/A |
|---|---|
| Airport | Augusta Regional At Bush Field (KAGS) |
| Time | Latitude | Longitude | Altitude | Speed | Heading |
|---|---|---|---|---|---|
| 2026-04-26 12:25 | 28.70265 | -105.96888 | 4466 ft | 0 kts | 281° |
| 2026-04-26 12:26 | 28.70265 | -105.96887 | 4466 ft | 1 kts | 281° |
| 2026-04-26 12:26 | 28.70261 | -105.96874 | 4466 ft | 2 kts | 298° |
| 2026-04-26 12:26 | 28.70249 | -105.96858 | 4466 ft | 3 kts | 326° |
| 2026-04-26 12:27 | 28.70230 | -105.96850 | 4466 ft | 3 kts | 352° |
| 2026-04-26 12:27 | 28.70210 | -105.96851 | 4466 ft | 3 kts | 11° |
| 2026-04-26 12:27 | 28.70202 | -105.96853 | 4466 ft | 0 kts | 11° |
| 2026-04-26 12:28 | 28.70233 | -105.96846 | 4466 ft | 6 kts | 13° |
| 2026-04-26 12:28 | 28.70250 | -105.96803 | 4466 ft | 10 kts | 98° |
| 2026-04-26 12:29 | 28.70255 | -105.96737 | 4466 ft | 9 kts | 34° |
| 2026-04-26 12:29 | 28.70356 | -105.96706 | 4466 ft | 22 kts | 12° |
| 2026-04-26 12:29 | 28.70629 | -105.96640 | 4466 ft | 12 kts | 12° |
| 2026-04-26 12:30 | 28.70690 | -105.96625 | 4467 ft | 8 kts | 12° |
| 2026-04-26 12:30 | 28.70762 | -105.96608 | 4466 ft | 14 kts | 12° |
| 2026-04-26 12:30 | 28.70876 | -105.96578 | 4466 ft | 20 kts | 13° |
| 2026-04-26 12:31 | 28.71189 | -105.96501 | 4466 ft | 21 kts | 12° |
| 2026-04-26 12:31 | 28.71298 | -105.96442 | 4467 ft | 14 kts | 67° |
| 2026-04-26 12:31 | 28.71298 | -105.96340 | 4466 ft | 14 kts | 98° |
| 2026-04-26 12:31 | 28.71283 | -105.96221 | 4466 ft | 17 kts | 98° |
| 2026-04-26 12:32 | 28.71328 | -105.96133 | 4466 ft | 18 kts | 15° |
| 2026-04-26 12:32 | 28.71425 | -105.96063 | 4466 ft | 18 kts | 358° |
| 2026-04-26 12:32 | 28.71420 | -105.96110 | 4466 ft | 0 kts | 190° |
| 2026-04-26 12:33 | 28.71419 | -105.96110 | 4466 ft | 0 kts | 190° |
| 2026-04-26 12:33 | 28.71308 | -105.96133 | 4466 ft | 47 kts | 191° |
| 2026-04-26 12:33 | 28.70716 | -105.96261 | 4467 ft | 125 kts | 191° |
| 2026-04-26 12:33 | 28.69642 | -105.96504 | 4601 ft | 189 kts | 191° |
| 2026-04-26 12:34 | 28.68190 | -105.96834 | 5163 ft | 234 kts | 192° |
| 2026-04-26 12:34 | 28.66464 | -105.97113 | 5781 ft | 254 kts | 185° |
| 2026-04-26 12:34 | 28.64814 | -105.97424 | 6362 ft | 231 kts | 198° |
| 2026-04-26 12:34 | 28.63247 | -105.98138 | 6929 ft | 251 kts | 205° |
| 2026-04-26 12:35 | 28.61655 | -105.98943 | 7504 ft | 254 kts | 205° |
| 2026-04-26 12:35 | 28.60004 | -105.99730 | 8085 ft | 259 kts | 204° |
| 2026-04-26 12:35 | 28.58293 | -106.00475 | 8668 ft | 264 kts | 203° |
| 2026-04-26 12:35 | 28.56566 | -106.01163 | 9239 ft | 268 kts | 202° |
| 2026-04-26 12:36 | 28.54776 | -106.01829 | 9818 ft | 272 kts | 202° |
| 2026-04-26 12:36 | 28.52949 | -106.02475 | 10398 ft | 275 kts | 202° |
| 2026-04-26 12:36 | 28.51122 | -106.03099 | 10970 ft | 279 kts | 201° |
| 2026-04-26 12:36 | 28.49247 | -106.03726 | 11549 ft | 282 kts | 201° |
| 2026-04-26 12:37 | 28.47340 | -106.04354 | 12130 ft | 285 kts | 201° |
| 2026-04-26 12:37 | 28.45443 | -106.04973 | 12702 ft | 287 kts | 201° |
| 2026-04-26 12:37 | 28.43502 | -106.05604 | 13283 ft | 290 kts | 201° |
| 2026-04-26 12:37 | 28.41501 | -106.05952 | 13849 ft | 305 kts | 182° |
| 2026-04-26 12:38 | 28.39386 | -106.05278 | 14437 ft | 325 kts | 156° |
| 2026-04-26 12:38 | 28.37644 | -106.03607 | 15013 ft | 340 kts | 131° |
| 2026-04-26 12:38 | 28.36578 | -106.01163 | 15596 ft | 352 kts | 107° |
| 2026-04-26 12:38 | 28.36428 | -105.98361 | 16178 ft | 360 kts | 82° |
| 2026-04-26 12:39 | 28.37195 | -105.95684 | 16755 ft | 363 kts | 62° |
| 2026-04-26 12:39 | 28.38500 | -105.93212 | 17338 ft | 367 kts | 54° |
| 2026-04-26 12:39 | 28.39997 | -105.90827 | 17921 ft | 371 kts | 52° |
| 2026-04-26 12:39 | 28.41509 | -105.88462 | 18493 ft | 375 kts | 53° |
| 2026-04-26 12:40 | 28.43011 | -105.85997 | 19073 ft | 380 kts | 55° |
| 2026-04-26 12:40 | 28.44451 | -105.83452 | 19653 ft | 384 kts | 57° |
| 2026-04-26 12:40 | 28.45827 | -105.80822 | 20233 ft | 387 kts | 59° |
| 2026-04-26 12:40 | 28.47125 | -105.78147 | 20808 ft | 391 kts | 61° |
| 2026-04-26 12:41 | 28.48365 | -105.75414 | 21381 ft | 394 kts | 63° |
| 2026-04-26 12:41 | 28.49570 | -105.72599 | 21959 ft | 396 kts | 64° |
| 2026-04-26 12:41 | 28.50737 | -105.69734 | 22537 ft | 399 kts | 65° |
| 2026-04-26 12:41 | 28.51856 | -105.66869 | 23107 ft | 401 kts | 65° |
| 2026-04-26 12:42 | 28.52964 | -105.63935 | 23684 ft | 403 kts | 66° |
| 2026-04-26 12:42 | 28.54050 | -105.60977 | 24260 ft | 405 kts | 66° |
| 2026-04-26 12:42 | 28.55111 | -105.58017 | 24832 ft | 407 kts | 67° |
| 2026-04-26 12:42 | 28.56170 | -105.55008 | 25410 ft | 408 kts | 67° |
| 2026-04-26 12:43 | 28.57215 | -105.51988 | 25986 ft | 410 kts | 68° |
| 2026-04-26 12:43 | 28.58235 | -105.49003 | 26553 ft | 411 kts | 68° |
| 2026-04-26 12:43 | 28.59265 | -105.45958 | 27129 ft | 411 kts | 68° |
| 2026-04-26 12:43 | 28.60289 | -105.42904 | 27705 ft | 412 kts | 68° |
| 2026-04-26 12:44 | 28.61296 | -105.39876 | 28275 ft | 412 kts | 68° |
| 2026-04-26 12:44 | 28.62311 | -105.36807 | 28852 ft | 411 kts | 68° |
| 2026-04-26 12:44 | 28.63302 | -105.33795 | 29420 ft | 410 kts | 68° |
| 2026-04-26 12:44 | 28.64296 | -105.30758 | 29993 ft | 408 kts | 68° |
| 2026-04-26 12:45 | 28.65286 | -105.27727 | 30566 ft | 406 kts | 68° |
| 2026-04-26 12:45 | 28.66266 | -105.24713 | 31140 ft | 403 kts | 68° |
| 2026-04-26 12:45 | 28.67220 | -105.21771 | 31703 ft | 400 kts | 68° |
| 2026-04-26 12:45 | 28.68178 | -105.18807 | 32269 ft | 396 kts | 67° |
| 2026-04-26 12:46 | 28.69131 | -105.15854 | 32735 ft | 395 kts | 67° |
| 2026-04-26 12:46 | 28.70072 | -105.12934 | 33122 ft | 396 kts | 67° |
| 2026-04-26 12:46 | 28.71026 | -105.09973 | 33502 ft | 397 kts | 67° |
| 2026-04-26 12:46 | 28.71982 | -105.07004 | 33879 ft | 398 kts | 67° |
| 2026-04-26 12:47 | 28.72923 | -105.04074 | 34250 ft | 398 kts | 66° |
| 2026-04-26 12:47 | 28.73881 | -105.01085 | 34626 ft | 398 kts | 67° |
| 2026-04-26 12:47 | 28.74830 | -104.98124 | 34999 ft | 398 kts | 67° |
| 2026-04-26 12:47 | 28.75768 | -104.95192 | 35368 ft | 397 kts | 67° |
| 2026-04-26 12:48 | 28.76716 | -104.92222 | 35741 ft | 396 kts | 67° |
| 2026-04-26 12:48 | 28.77663 | -104.89254 | 36115 ft | 395 kts | 67° |
| 2026-04-26 12:48 | 28.78593 | -104.86332 | 36485 ft | 393 kts | 67° |
| 2026-04-26 12:48 | 28.79514 | -104.83439 | 36819 ft | 392 kts | 66° |
| 2026-04-26 12:49 | 28.80454 | -104.80486 | 36950 ft | 398 kts | 66° |
| 2026-04-26 12:49 | 28.82395 | -104.74402 | 37043 ft | 417 kts | 67° |
| 2026-04-26 12:50 | 28.84419 | -104.68050 | 37045 ft | 437 kts | 67° |
| 2026-04-26 12:50 | 28.85475 | -104.64733 | 37043 ft | 448 kts | 67° |
| 2026-04-26 12:50 | 28.86538 | -104.61386 | 37042 ft | 458 kts | 67° |
| 2026-04-26 12:51 | 28.88743 | -104.54428 | 37040 ft | 476 kts | 68° |
| 2026-04-26 12:51 | 28.91038 | -104.47163 | 37037 ft | 494 kts | 68° |
| 2026-04-26 12:52 | 28.93386 | -104.39707 | 37035 ft | 509 kts | 68° |
| 2026-04-26 12:52 | 28.95811 | -104.31983 | 37033 ft | 522 kts | 68° |
| 2026-04-26 12:53 | 28.98290 | -104.24066 | 37032 ft | 534 kts | 68° |
| 2026-04-26 12:53 | 29.00792 | -104.16054 | 37047 ft | 543 kts | 68° |
| 2026-04-26 12:54 | 29.03344 | -104.07858 | 37052 ft | 551 kts | 68° |
| 2026-04-26 12:54 | 29.05931 | -103.99531 | 37052 ft | 556 kts | 68° |
| 2026-04-26 12:55 | 29.08511 | -103.91201 | 37052 ft | 559 kts | 68° |
| 2026-04-26 12:55 | 29.11109 | -103.82790 | 37052 ft | 561 kts | 68° |
| 2026-04-26 12:56 | 29.13693 | -103.74402 | 37052 ft | 563 kts | 68° |
| 2026-04-26 12:56 | 29.16296 | -103.65930 | 37052 ft | 562 kts | 68° |
| 2026-04-26 12:57 | 29.18875 | -103.57517 | 37052 ft | 561 kts | 69° |
| 2026-04-26 12:57 | 29.21453 | -103.49080 | 37052 ft | 559 kts | 69° |
| 2026-04-26 12:58 | 29.25282 | -103.36515 | 37052 ft | 558 kts | 69° |
| 2026-04-26 12:58 | 29.27836 | -103.28113 | 36994 ft | 560 kts | 68° |
| 2026-04-26 12:59 | 29.30382 | -103.19716 | 36964 ft | 560 kts | 69° |
| 2026-04-26 12:59 | 29.32924 | -103.11311 | 36957 ft | 559 kts | 69° |
| 2026-04-26 13:00 | 29.35470 | -103.02872 | 36945 ft | 558 kts | 69° |
| 2026-04-26 13:00 | 29.37992 | -102.94489 | 36946 ft | 557 kts | 69° |
| 2026-04-26 13:01 | 29.40522 | -102.86056 | 36940 ft | 556 kts | 69° |
| 2026-04-26 13:01 | 29.43019 | -102.77714 | 36928 ft | 555 kts | 69° |
| 2026-04-26 13:02 | 29.45529 | -102.69305 | 36919 ft | 554 kts | 69° |
| 2026-04-26 13:02 | 29.48001 | -102.61005 | 36912 ft | 553 kts | 69° |
| 2026-04-26 13:03 | 29.50490 | -102.52622 | 36909 ft | 552 kts | 69° |
| 2026-04-26 13:03 | 29.52956 | -102.44298 | 36902 ft | 551 kts | 69° |
| 2026-04-26 13:04 | 29.55412 | -102.35987 | 36876 ft | 551 kts | 69° |
| 2026-04-26 13:04 | 29.57872 | -102.27640 | 36866 ft | 549 kts | 69° |
| 2026-04-26 13:05 | 29.60305 | -102.19363 | 36867 ft | 549 kts | 69° |
| 2026-04-26 13:05 | 29.62734 | -102.11076 | 36860 ft | 548 kts | 69° |
| 2026-04-26 13:06 | 29.65166 | -102.02760 | 36859 ft | 549 kts | 69° |
| 2026-04-26 13:06 | 29.67600 | -101.94417 | 36858 ft | 549 kts | 69° |
| 2026-04-26 13:07 | 29.70032 | -101.86060 | 36848 ft | 549 kts | 69° |
| 2026-04-26 13:07 | 29.72445 | -101.77745 | 36857 ft | 549 kts | 69° |
| 2026-04-26 13:08 | 29.74848 | -101.69444 | 36856 ft | 549 kts | 69° |
| 2026-04-26 13:08 | 29.77259 | -101.61089 | 36846 ft | 548 kts | 69° |
| 2026-04-26 13:09 | 29.79663 | -101.52744 | 36846 ft | 550 kts | 69° |
| 2026-04-26 13:09 | 29.82063 | -101.44387 | 36834 ft | 549 kts | 69° |
| 2026-04-26 13:10 | 29.84456 | -101.36028 | 36829 ft | 549 kts | 69° |
| 2026-04-26 13:10 | 29.86829 | -101.27716 | 36830 ft | 549 kts | 69° |
| 2026-04-26 13:11 | 29.89211 | -101.19354 | 36827 ft | 549 kts | 69° |
| 2026-04-26 13:11 | 29.91583 | -101.11000 | 36828 ft | 548 kts | 69° |
| 2026-04-26 13:12 | 29.93950 | -101.02640 | 36829 ft | 548 kts | 69° |
| 2026-04-26 13:12 | 29.95915 | -100.95686 | 36824 ft | 548 kts | 69° |
| 2026-04-26 13:13 | 29.98651 | -100.85981 | 36820 ft | 547 kts | 69° |
| 2026-04-26 13:13 | 30.00609 | -100.79012 | 36820 ft | 548 kts | 69° |
| 2026-04-26 13:14 | 30.02960 | -100.70629 | 36821 ft | 548 kts | 69° |
| 2026-04-26 13:14 | 30.05303 | -100.62246 | 36822 ft | 548 kts | 69° |
| 2026-04-26 13:15 | 30.07626 | -100.53910 | 36831 ft | 546 kts | 69° |
| 2026-04-26 13:15 | 30.09940 | -100.45585 | 36837 ft | 545 kts | 69° |
| 2026-04-26 13:16 | 30.12257 | -100.37230 | 36842 ft | 544 kts | 69° |
| 2026-04-26 13:16 | 30.14552 | -100.28929 | 36847 ft | 544 kts | 69° |
| 2026-04-26 13:17 | 30.17995 | -100.16435 | 36864 ft | 544 kts | 69° |
| 2026-04-26 13:18 | 30.21433 | -100.03912 | 36869 ft | 545 kts | 69° |
| 2026-04-26 13:19 | 30.24857 | -99.91387 | 36872 ft | 546 kts | 69° |
| 2026-04-26 13:19 | 30.27145 | -99.82991 | 36873 ft | 548 kts | 70° |
| 2026-04-26 13:20 | 30.29436 | -99.74559 | 36873 ft | 549 kts | 70° |
| 2026-04-26 13:20 | 30.31722 | -99.66118 | 36874 ft | 549 kts | 70° |
| 2026-04-26 13:21 | 30.33990 | -99.57719 | 36873 ft | 548 kts | 70° |
| 2026-04-26 13:21 | 30.36264 | -99.49268 | 36873 ft | 547 kts | 70° |
| 2026-04-26 13:22 | 30.38515 | -99.40885 | 36873 ft | 547 kts | 70° |
| 2026-04-26 13:22 | 30.40774 | -99.32446 | 36873 ft | 547 kts | 70° |
| 2026-04-26 13:23 | 30.43020 | -99.24034 | 36874 ft | 548 kts | 70° |
| 2026-04-26 13:23 | 30.45262 | -99.15613 | 36875 ft | 548 kts | 70° |
| 2026-04-26 13:24 | 30.47510 | -99.07144 | 36875 ft | 548 kts | 70° |
| 2026-04-26 13:24 | 30.49736 | -98.98735 | 36875 ft | 548 kts | 70° |
| 2026-04-26 13:25 | 30.51973 | -98.90259 | 36875 ft | 548 kts | 70° |
| 2026-04-26 13:25 | 30.54187 | -98.81848 | 36874 ft | 548 kts | 70° |
| 2026-04-26 13:26 | 30.56408 | -98.73382 | 36875 ft | 548 kts | 70° |
| 2026-04-26 13:26 | 30.58618 | -98.64931 | 36874 ft | 546 kts | 70° |
| 2026-04-26 13:27 | 30.60814 | -98.56508 | 36880 ft | 544 kts | 70° |
| 2026-04-26 13:27 | 30.63004 | -98.48086 | 36886 ft | 544 kts | 70° |
| 2026-04-26 13:28 | 30.65181 | -98.39692 | 36883 ft | 544 kts | 70° |
| 2026-04-26 13:28 | 30.67360 | -98.31270 | 36879 ft | 545 kts | 70° |
| 2026-04-26 13:29 | 30.69529 | -98.22857 | 36880 ft | 545 kts | 69° |
| 2026-04-26 13:29 | 30.71706 | -98.14389 | 36882 ft | 546 kts | 69° |
| 2026-04-26 13:30 | 30.73873 | -98.05935 | 36885 ft | 547 kts | 69° |
| 2026-04-26 13:30 | 30.76034 | -97.97481 | 36890 ft | 547 kts | 69° |
| 2026-04-26 13:31 | 30.78199 | -97.88984 | 36913 ft | 548 kts | 69° |
| 2026-04-26 13:31 | 30.80368 | -97.80446 | 36937 ft | 548 kts | 69° |
| 2026-04-26 13:32 | 30.82520 | -97.71951 | 36947 ft | 548 kts | 69° |
| 2026-04-26 13:32 | 30.84663 | -97.63458 | 36928 ft | 548 kts | 69° |
| 2026-04-26 13:33 | 30.86800 | -97.54965 | 36935 ft | 548 kts | 69° |
| 2026-04-26 13:33 | 30.88946 | -97.46416 | 36922 ft | 549 kts | 69° |
| 2026-04-26 13:34 | 30.91082 | -97.37879 | 36906 ft | 548 kts | 69° |
| 2026-04-26 13:34 | 30.93201 | -97.29383 | 36896 ft | 548 kts | 69° |
| 2026-04-26 13:35 | 30.95328 | -97.20829 | 36887 ft | 549 kts | 69° |
| 2026-04-26 13:35 | 30.97437 | -97.12318 | 36879 ft | 548 kts | 69° |
| 2026-04-26 13:36 | 30.99556 | -97.03743 | 36872 ft | 548 kts | 69° |
| 2026-04-26 13:36 | 31.01657 | -96.95214 | 36874 ft | 548 kts | 69° |
| 2026-04-26 13:37 | 31.03749 | -96.86692 | 36874 ft | 547 kts | 70° |
| 2026-04-26 13:37 | 31.05834 | -96.78172 | 36874 ft | 546 kts | 70° |
| 2026-04-26 13:38 | 31.07907 | -96.69677 | 36875 ft | 546 kts | 70° |
| 2026-04-26 13:38 | 31.09980 | -96.61151 | 36872 ft | 545 kts | 70° |
| 2026-04-26 13:39 | 31.12043 | -96.52642 | 36871 ft | 544 kts | 70° |
| 2026-04-26 13:39 | 31.14089 | -96.44178 | 36869 ft | 545 kts | 70° |
| 2026-04-26 13:40 | 31.16148 | -96.35640 | 36868 ft | 545 kts | 70° |
| 2026-04-26 13:40 | 31.18202 | -96.27092 | 36875 ft | 546 kts | 70° |
| 2026-04-26 13:41 | 31.20250 | -96.18543 | 36881 ft | 546 kts | 69° |
| 2026-04-26 13:41 | 31.22278 | -96.10042 | 36884 ft | 545 kts | 70° |
| 2026-04-26 13:42 | 31.24310 | -96.01499 | 36884 ft | 545 kts | 70° |
| 2026-04-26 13:42 | 31.26323 | -95.93008 | 36887 ft | 544 kts | 69° |
| 2026-04-26 13:43 | 31.28335 | -95.84493 | 36888 ft | 542 kts | 70° |
| 2026-04-26 13:43 | 31.30329 | -95.76028 | 36892 ft | 541 kts | 70° |
| 2026-04-26 13:44 | 31.32327 | -95.67521 | 36896 ft | 541 kts | 70° |
| 2026-04-26 13:44 | 31.34317 | -95.59024 | 36897 ft | 541 kts | 70° |
| 2026-04-26 13:45 | 31.36297 | -95.50542 | 36896 ft | 541 kts | 70° |
| 2026-04-26 13:45 | 31.38267 | -95.42078 | 36901 ft | 541 kts | 70° |
| 2026-04-26 13:46 | 31.40237 | -95.33585 | 36909 ft | 541 kts | 70° |
| 2026-04-26 13:46 | 31.42209 | -95.25052 | 36912 ft | 542 kts | 70° |
| 2026-04-26 13:47 | 31.44175 | -95.16521 | 36913 ft | 542 kts | 70° |
| 2026-04-26 13:47 | 31.46125 | -95.08031 | 36913 ft | 542 kts | 70° |
| 2026-04-26 13:48 | 31.48073 | -94.99522 | 36916 ft | 542 kts | 70° |
| 2026-04-26 13:48 | 31.50025 | -94.90959 | 36917 ft | 541 kts | 70° |
| 2026-04-26 13:49 | 31.51954 | -94.82471 | 36923 ft | 541 kts | 70° |
| 2026-04-26 13:49 | 31.53889 | -94.73931 | 36928 ft | 541 kts | 70° |
| 2026-04-26 13:50 | 31.55808 | -94.65431 | 36927 ft | 541 kts | 70° |
| 2026-04-26 13:50 | 31.57739 | -94.56856 | 36927 ft | 542 kts | 70° |
| 2026-04-26 13:51 | 31.59658 | -94.48305 | 36928 ft | 543 kts | 70° |
| 2026-04-26 13:51 | 31.61571 | -94.39748 | 36923 ft | 543 kts | 70° |
| 2026-04-26 13:52 | 31.63481 | -94.31177 | 36922 ft | 544 kts | 70° |
| 2026-04-26 13:52 | 31.65391 | -94.22576 | 36927 ft | 544 kts | 70° |
| 2026-04-26 13:53 | 31.67285 | -94.14014 | 36924 ft | 544 kts | 70° |
| 2026-04-26 13:53 | 31.69182 | -94.05411 | 36926 ft | 544 kts | 71° |
| 2026-04-26 13:54 | 31.71067 | -93.96829 | 36928 ft | 542 kts | 71° |
| 2026-04-26 13:54 | 31.72942 | -93.88262 | 36930 ft | 542 kts | 71° |
| 2026-04-26 13:55 | 31.75444 | -93.76786 | 36935 ft | 542 kts | 71° |
| 2026-04-26 13:56 | 31.78547 | -93.62487 | 36933 ft | 543 kts | 71° |
| 2026-04-26 13:56 | 31.80404 | -93.53891 | 36934 ft | 543 kts | 71° |
| 2026-04-26 13:57 | 31.82263 | -93.45254 | 36934 ft | 544 kts | 71° |
| 2026-04-26 13:57 | 31.84110 | -93.36643 | 36934 ft | 545 kts | 71° |
| 2026-04-26 13:58 | 31.85962 | -93.27979 | 36934 ft | 545 kts | 71° |
| 2026-04-26 13:58 | 31.87795 | -93.19366 | 36934 ft | 545 kts | 71° |
| 2026-04-26 13:59 | 31.89634 | -93.10699 | 36934 ft | 545 kts | 71° |
| 2026-04-26 13:59 | 31.91156 | -93.03496 | 36936 ft | 543 kts | 71° |
| 2026-04-26 14:00 | 31.94784 | -92.86239 | 36940 ft | 542 kts | 71° |
| 2026-04-26 14:01 | 31.96587 | -92.77621 | 36945 ft | 542 kts | 71° |
| 2026-04-26 14:01 | 31.98376 | -92.69042 | 36948 ft | 543 kts | 71° |
| 2026-04-26 14:02 | 32.00179 | -92.60365 | 36942 ft | 543 kts | 71° |
| 2026-04-26 14:02 | 32.01967 | -92.51725 | 36943 ft | 543 kts | 71° |
| 2026-04-26 14:03 | 32.03746 | -92.43102 | 36943 ft | 543 kts | 72° |
| 2026-04-26 14:03 | 32.05526 | -92.34440 | 36941 ft | 543 kts | 72° |
| 2026-04-26 14:04 | 32.07298 | -92.25783 | 36946 ft | 543 kts | 72° |
| 2026-04-26 14:04 | 32.09062 | -92.17133 | 36946 ft | 544 kts | 72° |
| 2026-04-26 14:05 | 32.10823 | -92.08466 | 36960 ft | 540 kts | 73° |
| 2026-04-26 14:05 | 32.12552 | -91.99920 | 36962 ft | 532 kts | 73° |
| 2026-04-26 14:06 | 32.14254 | -91.91459 | 36961 ft | 527 kts | 73° |
| 2026-04-26 14:06 | 32.15939 | -91.83061 | 36957 ft | 525 kts | 73° |
| 2026-04-26 14:07 | 32.17613 | -91.74692 | 36955 ft | 524 kts | 73° |
| 2026-04-26 14:07 | 32.19279 | -91.66335 | 36955 ft | 524 kts | 73° |
| 2026-04-26 14:08 | 32.20941 | -91.57969 | 36948 ft | 524 kts | 73° |
| 2026-04-26 14:08 | 32.22600 | -91.49593 | 36945 ft | 523 kts | 73° |
| 2026-04-26 14:09 | 32.24250 | -91.41235 | 36944 ft | 524 kts | 73° |
| 2026-04-26 14:09 | 32.25904 | -91.32822 | 36938 ft | 525 kts | 72° |
| 2026-04-26 14:10 | 32.27549 | -91.24426 | 36936 ft | 529 kts | 72° |
| 2026-04-26 14:10 | 32.29212 | -91.15919 | 36936 ft | 530 kts | 73° |
| 2026-04-26 14:11 | 32.31675 | -91.03235 | 36934 ft | 529 kts | 73° |
| 2026-04-26 14:11 | 32.33315 | -90.94746 | 36934 ft | 529 kts | 73° |
| 2026-04-26 14:12 | 32.34953 | -90.86235 | 36934 ft | 529 kts | 73° |
| 2026-04-26 14:12 | 32.36573 | -90.77785 | 36934 ft | 530 kts | 73° |
| 2026-04-26 14:13 | 32.39013 | -90.65002 | 36934 ft | 531 kts | 73° |
| 2026-04-26 14:14 | 32.40630 | -90.56492 | 36934 ft | 532 kts | 73° |
| 2026-04-26 14:14 | 32.42255 | -90.47902 | 36934 ft | 533 kts | 73° |
| 2026-04-26 14:15 | 32.43866 | -90.39353 | 36934 ft | 533 kts | 73° |
| 2026-04-26 14:15 | 32.45472 | -90.30795 | 36934 ft | 534 kts | 73° |
| 2026-04-26 14:16 | 32.47080 | -90.22192 | 36936 ft | 533 kts | 73° |
| 2026-04-26 14:16 | 32.48662 | -90.13687 | 36943 ft | 530 kts | 74° |
| 2026-04-26 14:17 | 32.50242 | -90.05160 | 36947 ft | 528 kts | 74° |
| 2026-04-26 14:17 | 32.51813 | -89.96647 | 36979 ft | 527 kts | 74° |
| 2026-04-26 14:18 | 32.53366 | -89.88201 | 36986 ft | 528 kts | 74° |
| 2026-04-26 14:18 | 32.54931 | -89.79661 | 36975 ft | 527 kts | 74° |
| 2026-04-26 14:19 | 32.56479 | -89.71177 | 36979 ft | 527 kts | 74° |
| 2026-04-26 14:19 | 32.58021 | -89.62699 | 36980 ft | 529 kts | 74° |
| 2026-04-26 14:20 | 32.59574 | -89.54125 | 36980 ft | 530 kts | 74° |
| 2026-04-26 14:20 | 32.61116 | -89.45578 | 36980 ft | 531 kts | 74° |
| 2026-04-26 14:21 | 32.62654 | -89.37016 | 36979 ft | 532 kts | 74° |
| 2026-04-26 14:21 | 32.64191 | -89.28421 | 36979 ft | 533 kts | 74° |
| 2026-04-26 14:22 | 32.65717 | -89.19843 | 36979 ft | 530 kts | 74° |
| 2026-04-26 14:22 | 32.67223 | -89.11323 | 36977 ft | 527 kts | 74° |
| 2026-04-26 14:23 | 32.68721 | -89.02830 | 36978 ft | 526 kts | 74° |
| 2026-04-26 14:23 | 32.70219 | -88.94307 | 36975 ft | 526 kts | 74° |
| 2026-04-26 14:24 | 32.71701 | -88.85844 | 36969 ft | 525 kts | 74° |
| 2026-04-26 14:24 | 32.73186 | -88.77333 | 36971 ft | 526 kts | 74° |
| 2026-04-26 14:25 | 32.74664 | -88.68838 | 36971 ft | 528 kts | 75° |
| 2026-04-26 14:25 | 32.76154 | -88.60241 | 36969 ft | 531 kts | 74° |
| 2026-04-26 14:26 | 32.77633 | -88.51659 | 36979 ft | 533 kts | 74° |
| 2026-04-26 14:26 | 32.79117 | -88.43009 | 36983 ft | 534 kts | 74° |
| 2026-04-26 14:27 | 32.80592 | -88.34370 | 36984 ft | 535 kts | 74° |
| 2026-04-26 14:27 | 32.82072 | -88.25662 | 36988 ft | 534 kts | 74° |
| 2026-04-26 14:28 | 32.83531 | -88.17021 | 36991 ft | 532 kts | 74° |
| 2026-04-26 14:28 | 32.84971 | -88.08453 | 37002 ft | 530 kts | 74° |
| 2026-04-26 14:29 | 32.86414 | -87.99839 | 37010 ft | 529 kts | 74° |
| 2026-04-26 14:29 | 32.87843 | -87.91281 | 37012 ft | 530 kts | 74° |
| 2026-04-26 14:30 | 32.89278 | -87.82657 | 37016 ft | 530 kts | 74° |
| 2026-04-26 14:30 | 32.90698 | -87.74087 | 37019 ft | 531 kts | 74° |
| 2026-04-26 14:31 | 32.92129 | -87.65409 | 37019 ft | 532 kts | 74° |
| 2026-04-26 14:31 | 32.93544 | -87.56788 | 37021 ft | 533 kts | 74° |
| 2026-04-26 14:32 | 32.94963 | -87.48102 | 37022 ft | 533 kts | 74° |
| 2026-04-26 14:32 | 32.96366 | -87.39464 | 37022 ft | 532 kts | 74° |
| 2026-04-26 14:33 | 32.97767 | -87.30809 | 37022 ft | 532 kts | 74° |
| 2026-04-26 14:33 | 32.99155 | -87.22180 | 37022 ft | 531 kts | 74° |
| 2026-04-26 14:34 | 33.00538 | -87.13544 | 37022 ft | 532 kts | 74° |
| 2026-04-26 14:34 | 33.01927 | -87.04844 | 37022 ft | 533 kts | 74° |
| 2026-04-26 14:35 | 33.03306 | -86.96171 | 37022 ft | 534 kts | 74° |
| 2026-04-26 14:35 | 33.04678 | -86.87499 | 37022 ft | 534 kts | 74° |
| 2026-04-26 14:36 | 33.06046 | -86.78809 | 37022 ft | 535 kts | 74° |
| 2026-04-26 14:36 | 33.07419 | -86.70042 | 37022 ft | 536 kts | 74° |
| 2026-04-26 14:37 | 33.08781 | -86.61305 | 37022 ft | 537 kts | 74° |
| 2026-04-26 14:37 | 33.10137 | -86.52567 | 37022 ft | 538 kts | 74° |
| 2026-04-26 14:38 | 33.11493 | -86.43791 | 37019 ft | 539 kts | 74° |
| 2026-04-26 14:38 | 33.12849 | -86.34965 | 37016 ft | 539 kts | 74° |
| 2026-04-26 14:39 | 33.14189 | -86.26189 | 37014 ft | 537 kts | 74° |
| 2026-04-26 14:39 | 33.15516 | -86.17450 | 37004 ft | 535 kts | 74° |
| 2026-04-26 14:40 | 33.16829 | -86.08755 | 37004 ft | 533 kts | 74° |
| 2026-04-26 14:40 | 33.18139 | -86.00052 | 37003 ft | 533 kts | 74° |
| 2026-04-26 14:41 | 33.19451 | -85.91298 | 37000 ft | 533 kts | 74° |
| 2026-04-26 14:41 | 33.20750 | -85.82602 | 37003 ft | 534 kts | 74° |
| 2026-04-26 14:42 | 33.22045 | -85.73882 | 37002 ft | 535 kts | 74° |
| 2026-04-26 14:42 | 33.23335 | -85.65149 | 37006 ft | 535 kts | 74° |
| 2026-04-26 14:43 | 33.24624 | -85.56374 | 37011 ft | 535 kts | 74° |
| 2026-04-26 14:43 | 33.25901 | -85.47639 | 37005 ft | 535 kts | 74° |
| 2026-04-26 14:44 | 33.27180 | -85.38847 | 37005 ft | 534 kts | 74° |
| 2026-04-26 14:44 | 33.28437 | -85.30146 | 37004 ft | 532 kts | 74° |
| 2026-04-26 14:45 | 33.29691 | -85.21422 | 36997 ft | 530 kts | 74° |
| 2026-04-26 14:45 | 33.30926 | -85.12779 | 36994 ft | 528 kts | 74° |
| 2026-04-26 14:46 | 33.32164 | -85.04082 | 36993 ft | 527 kts | 74° |
| 2026-04-26 14:46 | 33.33384 | -84.95477 | 36993 ft | 527 kts | 74° |
| 2026-04-26 14:47 | 33.34599 | -84.86866 | 36993 ft | 527 kts | 74° |
| 2026-04-26 14:47 | 33.35807 | -84.78247 | 36990 ft | 526 kts | 74° |
| 2026-04-26 14:48 | 33.36815 | -84.71030 | 36992 ft | 528 kts | 74° |
| 2026-04-26 14:48 | 33.38216 | -84.60950 | 36993 ft | 528 kts | 74° |
| 2026-04-26 14:49 | 33.39214 | -84.53735 | 36993 ft | 528 kts | 74° |
| 2026-04-26 14:49 | 33.40411 | -84.45032 | 36993 ft | 528 kts | 74° |
| 2026-04-26 14:50 | 33.41590 | -84.36417 | 36993 ft | 527 kts | 74° |